createdAt,value
2022-08-22T00:04:37.392Z,16.97
2022-08-22T00:09:49.723Z,16.91
2022-08-22T00:15:08.165Z,17.06
2022-08-22T00:20:28.119Z,17.06
2022-08-22T00:25:50.343Z,17.08
2022-08-22T00:31:02.825Z,17.00
2022-08-22T00:36:17.723Z,17.02
2022-08-22T00:41:36.354Z,17.00
2022-08-22T00:47:08.833Z,17.07
2022-08-22T00:52:55.037Z,17.00
2022-08-22T00:58:23.153Z,17.09
2022-08-22T01:03:59.631Z,17.03
2022-08-22T01:09:10.951Z,16.98
2022-08-22T01:14:34.151Z,16.89
2022-08-22T01:20:11.129Z,16.72
2022-08-22T01:25:51.376Z,16.81
2022-08-22T01:31:30.594Z,16.86
2022-08-22T01:37:06.123Z,16.90
2022-08-22T01:42:35.228Z,16.88
2022-08-22T01:47:46.179Z,16.73
2022-08-22T01:53:00.857Z,16.71
2022-08-22T01:58:19.145Z,16.69
2022-08-22T02:03:30.746Z,16.65
2022-08-22T02:08:45.307Z,16.75
2022-08-22T02:13:57.619Z,16.83
2022-08-22T02:19:22.089Z,16.78
2022-08-22T02:24:42.920Z,16.70
2022-08-22T02:29:54.473Z,16.61
2022-08-22T02:35:06.761Z,16.58
2022-08-22T02:40:18.370Z,16.40
2022-08-22T02:45:36.098Z,16.37
2022-08-22T02:50:49.423Z,16.37
2022-08-22T02:56:07.459Z,16.25
2022-08-22T03:01:24.264Z,16.29
2022-08-22T03:06:36.643Z,16.32
2022-08-22T03:11:46.424Z,16.24
2022-08-22T03:16:55.803Z,16.18
2022-08-22T03:22:03.675Z,16.15
2022-08-22T03:27:23.213Z,16.05
2022-08-22T03:32:52.958Z,16.03
2022-08-22T03:38:12.862Z,16.03
2022-08-22T03:43:47.731Z,15.95
2022-08-22T03:49:32.593Z,15.90
2022-08-22T03:55:24.055Z,15.74
2022-08-22T04:01:00.370Z,15.73
2022-08-22T04:06:30.524Z,15.70
2022-08-22T04:11:53.525Z,15.62
2022-08-22T04:17:16.366Z,15.67
2022-08-22T04:22:49.186Z,15.77
2022-08-22T04:28:01.674Z,15.85
2022-08-22T04:33:11.924Z,15.94
2022-08-22T04:38:20.998Z,15.90
2022-08-22T04:43:31.826Z,15.87
2022-08-22T04:48:40.706Z,15.93
2022-08-22T04:54:05.650Z,15.99
2022-08-22T04:59:12.725Z,15.98
2022-08-22T05:04:22.460Z,16.07
2022-08-22T05:09:29.494Z,16.26
2022-08-22T05:14:41.144Z,16.47
2022-08-22T05:19:50.720Z,16.60
2022-08-22T05:24:59.414Z,16.78
2022-08-22T05:30:08.205Z,17.04
2022-08-22T05:35:16.181Z,17.12
2022-08-22T05:40:24.621Z,17.19
2022-08-22T05:45:30.613Z,17.28
2022-08-22T05:50:41.470Z,17.66
2022-08-22T05:55:56.545Z,17.90
2022-08-22T06:01:10.339Z,18.20
2022-08-22T06:06:19.601Z,18.75
2022-08-22T06:11:33.691Z,19.93
2022-08-22T06:16:51.239Z,20.49
2022-08-22T06:21:58.099Z,20.37
2022-08-22T06:27:08.635Z,21.33
2022-08-22T06:32:15.968Z,21.06
2022-08-22T06:37:26.397Z,21.56
2022-08-22T06:42:33.454Z,21.26
2022-08-22T06:47:38.328Z,19.88
2022-08-22T06:52:54.662Z,20.33
2022-08-22T06:58:04.022Z,20.32
2022-08-22T07:03:12.766Z,21.14
2022-08-22T07:08:22.758Z,21.66
2022-08-22T07:13:29.036Z,21.93
2022-08-22T07:18:33.285Z,22.12
2022-08-22T07:23:44.606Z,21.41
2022-08-22T07:28:58.748Z,21.41
2022-08-22T07:34:19.699Z,22.89
2022-08-22T07:39:32.575Z,22.48
2022-08-22T07:44:57.561Z,22.63
2022-08-22T07:50:07.287Z,22.53
2022-08-22T07:55:18.821Z,21.99
2022-08-22T08:00:25.063Z,23.38
2022-08-22T08:05:33.487Z,23.81
2022-08-22T08:10:41.332Z,23.02
2022-08-22T08:15:46.650Z,23.64
2022-08-22T08:20:53.134Z,23.08
2022-08-22T08:26:06.537Z,23.74
2022-08-22T08:31:19.107Z,23.84
2022-08-22T08:36:39.480Z,25.08
2022-08-22T08:42:11.006Z,24.06
2022-08-22T08:47:28.155Z,25.42
2022-08-22T08:53:07.220Z,24.87
2022-08-22T08:58:34.360Z,25.33
2022-08-22T09:04:22.383Z,26.03
2022-08-22T09:09:44.008Z,26.91
2022-08-22T09:15:01.183Z,26.57
2022-08-22T09:20:26.116Z,26.95
2022-08-22T09:25:38.509Z,26.67
2022-08-22T09:31:22.504Z,25.64
2022-08-22T09:36:49.134Z,24.66
2022-08-22T09:41:59.817Z,24.16
2022-08-22T09:47:24.691Z,24.62
2022-08-22T09:52:50.138Z,25.14
2022-08-22T09:58:03.505Z,26.05
2022-08-22T10:03:18.500Z,28.51
2022-08-22T10:08:34.673Z,27.61
2022-08-22T10:13:57.415Z,25.71
2022-08-22T10:19:17.957Z,25.86
2022-08-22T10:24:36.073Z,28.08
2022-08-22T10:30:03.977Z,29.54
2022-08-22T10:35:19.666Z,29.03
2022-08-22T10:40:30.440Z,29.30
2022-08-22T10:45:37.336Z,28.72
2022-08-22T10:50:46.825Z,27.94
2022-08-22T10:55:54.119Z,25.94
2022-08-22T11:01:01.260Z,25.06
2022-08-22T11:06:32.089Z,24.83
2022-08-22T11:11:54.223Z,24.51
2022-08-22T11:17:12.005Z,24.76
2022-08-22T11:22:36.585Z,27.35
2022-08-22T11:28:02.288Z,28.15
2022-08-22T11:33:20.212Z,28.81
2022-08-22T11:38:36.472Z,29.72
2022-08-22T11:43:52.153Z,29.36
2022-08-22T11:49:27.982Z,26.42
2022-08-22T11:54:53.980Z,24.37
2022-08-22T12:00:10.243Z,23.43
2022-08-22T12:05:26.211Z,22.63
2022-08-22T12:10:37.318Z,20.65
2022-08-22T12:15:53.891Z,20.26
2022-08-22T12:21:15.792Z,20.28
2022-08-22T12:26:32.191Z,20.31
2022-08-22T12:32:02.105Z,20.62
2022-08-22T12:37:20.274Z,20.82
2022-08-22T12:42:51.449Z,20.68
2022-08-22T12:48:10.019Z,20.53
2022-08-22T12:53:46.756Z,20.66
2022-08-22T12:59:17.838Z,20.94
2022-08-22T13:04:32.744Z,20.94
2022-08-22T13:09:43.159Z,21.24
2022-08-22T13:14:51.126Z,21.62
2022-08-22T13:20:04.694Z,21.47
2022-08-22T13:25:25.582Z,21.45
2022-08-22T13:30:34.514Z,21.96
2022-08-22T13:35:51.967Z,22.38
2022-08-22T13:40:59.373Z,22.35
2022-08-22T13:46:10.810Z,22.13
2022-08-22T13:51:24.898Z,22.05
2022-08-22T13:56:36.545Z,21.88
2022-08-22T14:01:50.833Z,21.86
2022-08-22T14:07:15.378Z,21.82
2022-08-22T14:12:24.523Z,21.89
2022-08-22T14:17:33.000Z,22.22
2022-08-22T14:34:20.845Z,22.60
2022-08-22T14:39:31.749Z,22.34
2022-08-22T14:44:45.683Z,22.07
2022-08-22T14:49:54.560Z,21.89
2022-08-22T14:55:12.971Z,21.68
2022-08-22T15:00:28.599Z,21.46
2022-08-22T15:05:45.222Z,20.96
2022-08-22T15:10:50.243Z,20.71
2022-08-22T15:15:56.020Z,20.63
2022-08-22T15:21:09.948Z,20.62
2022-08-22T15:26:24.221Z,20.36
2022-08-22T15:31:28.551Z,20.24
2022-08-22T15:36:34.532Z,19.86
2022-08-22T15:41:44.839Z,19.51
2022-08-22T15:47:01.098Z,18.89
2022-08-22T15:52:24.533Z,18.13
2022-08-22T15:57:33.064Z,17.71
2022-08-22T16:02:41.618Z,17.24
2022-08-22T16:07:50.800Z,17.12
2022-08-22T16:13:15.949Z,16.74
2022-08-22T16:18:57.398Z,16.66
2022-08-22T16:24:31.190Z,16.64
2022-08-22T16:29:42.651Z,16.49
2022-08-22T16:34:46.780Z,16.29
2022-08-22T16:40:05.822Z,16.32
2022-08-22T16:45:14.408Z,16.31
2022-08-22T16:50:34.350Z,16.41
2022-08-22T16:56:02.182Z,16.32
2022-08-22T17:01:15.499Z,16.21
2022-08-22T17:06:33.954Z,16.09
2022-08-22T17:11:51.688Z,16.03
2022-08-22T17:17:17.678Z,16.09
2022-08-22T17:22:32.936Z,16.09
2022-08-22T17:27:42.319Z,16.25
2022-08-22T17:33:11.724Z,16.27
2022-08-22T17:38:28.353Z,16.28
2022-08-22T17:43:49.747Z,16.31
2022-08-22T17:49:01.016Z,16.45
2022-08-22T17:54:14.528Z,16.46
2022-08-22T17:59:26.842Z,16.65
2022-08-22T18:04:43.358Z,16.66
2022-08-22T18:09:58.703Z,16.59
2022-08-22T18:15:12.304Z,16.69
2022-08-22T18:20:24.083Z,16.72
2022-08-22T18:25:36.553Z,16.58
2022-08-22T18:30:52.148Z,16.58
2022-08-22T18:36:09.074Z,16.67
2022-08-22T18:41:23.654Z,16.57
2022-08-22T18:46:46.245Z,16.73
2022-08-22T18:52:14.601Z,16.71
2022-08-22T18:57:42.566Z,16.61
2022-08-22T19:03:21.085Z,16.60
2022-08-22T19:08:54.531Z,16.50
2022-08-22T19:14:16.437Z,16.51
2022-08-22T19:19:56.090Z,16.48
2022-08-22T19:25:10.352Z,16.39
2022-08-22T19:30:38.322Z,16.25
2022-08-22T19:36:06.521Z,16.26
2022-08-22T19:41:10.598Z,16.24
2022-08-22T19:46:15.061Z,16.09
2022-08-22T20:08:34.286Z,16.07
2022-08-22T20:13:40.160Z,16.02
2022-08-22T20:19:07.420Z,16.15
2022-08-22T20:24:20.853Z,16.22
2022-08-22T20:29:29.491Z,16.29
2022-08-22T20:34:37.655Z,16.34
2022-08-22T20:39:58.572Z,16.34
2022-08-22T20:45:12.058Z,16.40
2022-08-22T20:50:24.502Z,16.46
2022-08-22T20:55:32.065Z,16.34
2022-08-22T21:00:42.526Z,16.27
2022-08-22T21:05:47.171Z,16.31
2022-08-22T21:11:18.527Z,16.42
2022-08-22T21:16:31.597Z,16.52
2022-08-22T21:21:37.101Z,16.64
2022-08-22T21:26:50.107Z,16.64
2022-08-22T21:31:59.100Z,16.93
2022-08-22T21:37:10.571Z,16.79
2022-08-22T21:42:24.988Z,16.82
2022-08-22T21:47:32.235Z,16.61
2022-08-22T21:52:37.349Z,16.70
2022-08-22T21:57:43.183Z,16.49
2022-08-22T22:02:47.400Z,16.56
2022-08-22T22:07:51.594Z,16.43
2022-08-22T22:12:58.943Z,16.42
2022-08-22T22:18:02.670Z,16.29
2022-08-22T22:23:06.698Z,16.27
2022-08-22T22:28:17.177Z,16.42
2022-08-22T22:33:21.996Z,16.50
2022-08-22T22:38:26.309Z,16.57
2022-08-22T22:43:32.074Z,16.57
2022-08-22T22:48:36.140Z,16.54
2022-08-22T22:53:43.057Z,16.56
2022-08-22T22:58:49.575Z,16.55
2022-08-22T23:03:55.977Z,16.65
2022-08-22T23:09:00.027Z,16.32
2022-08-22T23:14:05.332Z,16.26
2022-08-22T23:19:10.413Z,16.26
2022-08-22T23:24:15.212Z,16.23
2022-08-22T23:29:20.898Z,16.26
2022-08-22T23:34:27.199Z,16.32
2022-08-22T23:39:34.592Z,16.31
2022-08-22T23:44:41.870Z,16.51
2022-08-22T23:49:45.832Z,16.47
2022-08-22T23:54:54.345Z,16.46
